« Back
NWS Peachtree City, Ga » Text Product » ATL Terminal Aerodrome Forecast


Printer-friendly Version
Current Version              Previous Versions:   1  2  3  4  5  6  7  8  9  

Terminal Aerodrome Forecast

945
FTUS42 KFFC 051458 AAC
TAFATL
TAF AMD
KATL 051458Z 0515/0618 32012G22KT 4SM -RADZ BKN004 OVC008
     FM051600 32012G22KT 5SM -RA SCT005 OVC008
     FM052200 33010G20KT P6SM VCSH OVC012
     FM060100 34008G15KT P6SM OVC025
     FM060600 34008KT P6SM BKN025
     FM061500 02006KT P6SM SCT025=

USA.gov is the U.S. government's official web portal to all federal, state and local government web resources and services.